Time;durP1;ratioP1;P1;durP2;ratioP2;P2;SDS_P1;SDS_P2;PMS_P1;PMS_P2;Temp;Humidity;BMP_temperature;BMP_pressure;BME280_temperature;BME280_humidity;BME280_pressure;Samples;Min_cycle;Max_cycle;Signal;HPM_P1;HPM_P2
2021/08/05 00:00:32;;;;;;;;;;;16.10;95.00;;;;;;3253565;27;31610;-68
2021/08/05 00:02:58;;;;;;;;;;;16.20;94.30;;;;;;3281418;28;35059;-68
2021/08/05 00:05:25;;;;;;;;;;;16.30;93.70;;;;;;3272685;28;39063;-67
2021/08/05 00:07:52;;;;;;;;;;;16.20;93.80;;;;;;3269533;28;33077;-70
2021/08/05 00:10:18;;;;;;;;;;;16.20;93.70;;;;;;3254439;28;34069;-70
2021/08/05 00:12:45;;;;;;;;;;;16.20;93.40;;;;;;3274051;28;31054;-68
2021/08/05 00:15:12;;;;;;;;;;;16.30;93.30;;;;;;3253702;28;38054;-67
2021/08/05 00:17:38;;;;;;;;;;;16.40;93.60;;;;;;3263106;28;30081;-68
2021/08/05 00:20:05;;;;;;;;;;;16.40;93.30;;;;;;3246479;28;39066;-68
2021/08/05 00:22:32;;;;;;;;;;;16.50;93.10;;;;;;3269763;28;31588;-67
2021/08/05 00:24:59;;;;;;;;;;;16.50;92.80;;;;;;3299778;28;36851;-67
2021/08/05 00:27:26;;;;;;;;;;;16.50;92.40;;;;;;3323301;28;30064;-66
2021/08/05 00:29:52;;;;;;;;;;;16.50;92.50;;;;;;3325042;28;31891;-66
2021/08/05 00:32:19;;;;;;;;;;;16.70;92.60;;;;;;3363027;28;36172;-68
2021/08/05 00:34:46;;;;;;;;;;;16.80;92.30;;;;;;3388928;28;32716;-73
2021/08/05 00:37:12;;;;;;;;;;;16.70;91.50;;;;;;3287775;28;32685;-71
2021/08/05 00:39:39;;;;;;;;;;;16.70;91.70;;;;;;3347245;28;31737;-67
2021/08/05 00:42:10;;;;;;;;;;;16.80;91.50;;;;;;3349819;28;27822;-68
2021/08/05 00:44:37;;;;;;;;;;;16.90;91.40;;;;;;3342032;28;32797;-69
2021/08/05 00:47:04;;;;;;;;;;;16.90;91.00;;;;;;3356619;28;34072;-68
2021/08/05 00:49:31;;;;;;;;;;;17.00;90.80;;;;;;3453122;28;28106;-69
2021/08/05 00:51:58;;;;;;;;;;;17.00;90.60;;;;;;3406506;28;34090;-66
2021/08/05 00:54:24;;;;;;;;;;;17.20;90.90;;;;;;3344407;28;32168;-66
2021/08/05 00:56:51;;;;;;;;;;;17.20;90.80;;;;;;3378211;28;30077;-66
2021/08/05 00:59:18;;;;;;;;;;;17.20;90.50;;;;;;3483916;28;32754;-67
2021/08/05 01:01:46;;;;;;;;;;;17.20;90.30;;;;;;3369147;28;38118;-69
2021/08/05 01:04:14;;;;;;;;;;;17.30;90.00;;;;;;3363662;28;31136;-66
2021/08/05 01:06:59;;;;;;;;;;;17.30;89.80;;;;;;3392953;28;32869;-70
2021/08/05 01:09:44;;;;;;;;;;;17.30;90.00;;;;;;3322704;28;35094;-70
2021/08/05 01:12:17;;;;;;;;;;;17.40;88.90;;;;;;3414490;28;31094;-68
2021/08/05 01:14:45;;;;;;;;;;;17.50;89.30;;;;;;3422161;28;31094;-70
2021/08/05 01:17:12;;;;;;;;;;;17.50;89.20;;;;;;3266573;28;34096;-69
2021/08/05 01:19:58;;;;;;;;;;;17.60;89.10;;;;;;3321293;28;27934;-70
2021/08/05 01:22:30;;;;;;;;;;;17.70;88.40;;;;;;3275912;28;35947;-66
2021/08/05 01:25:05;;;;;;;;;;;17.90;87.10;;;;;;3254707;28;29070;-68
2021/08/05 01:27:32;;;;;;;;;;;18.00;86.80;;;;;;3278407;28;35095;-67
2021/08/05 01:30:00;;;;;;;;;;;18.20;86.90;;;;;;3243439;28;31132;-69
2021/08/05 01:32:26;;;;;;;;;;;18.20;85.70;;;;;;3227465;28;31952;-73
2021/08/05 01:34:54;;;;;;;;;;;18.30;85.60;;;;;;3218434;28;39223;-67
2021/08/05 01:37:22;;;;;;;;;;;18.20;85.30;;;;;;3234333;28;27565;-67
2021/08/05 01:39:50;;;;;;;;;;;18.30;85.00;;;;;;3226560;28;31090;-69
2021/08/05 01:42:20;;;;;;;;;;;18.30;84.10;;;;;;3221796;28;36161;-67
2021/08/05 01:44:49;;;;;;;;;;;18.50;84.90;;;;;;3173819;28;30091;-67
2021/08/05 01:47:16;;;;;;;;;;;18.50;83.60;;;;;;3244667;28;27133;-67
2021/08/05 01:49:43;;;;;;;;;;;18.40;83.20;;;;;;3245531;28;29053;-69
2021/08/05 01:52:12;;;;;;;;;;;18.60;83.20;;;;;;3176531;28;34087;-67
2021/08/05 01:54:39;;;;;;;;;;;18.80;83.70;;;;;;3179625;28;27090;-70
2021/08/05 01:57:08;;;;;;;;;;;18.80;82.20;;;;;;3231758;28;27084;-69
2021/08/05 01:59:34;;;;;;;;;;;18.90;82.20;;;;;;3314145;28;27852;-67
2021/08/05 02:02:02;;;;;;;;;;;19.00;82.20;;;;;;3421488;28;35064;-66
2021/08/05 02:04:38;;;;;;;;;;;19.10;81.80;;;;;;3356909;28;31938;-69
2021/08/05 02:07:08;;;;;;;;;;;19.30;81.60;;;;;;3294119;28;39053;-67
2021/08/05 02:09:42;;;;;;;;;;;19.30;80.50;;;;;;3287266;28;30067;-68
2021/08/05 02:12:09;;;;;;;;;;;19.30;81.00;;;;;;3351819;28;38113;-67
2021/08/05 02:14:36;;;;;;;;;;;19.30;80.70;;;;;;3368370;28;31130;-66
2021/08/05 02:17:07;;;;;;;;;;;19.10;81.40;;;;;;3366934;28;26900;-66
2021/08/05 02:19:34;;;;;;;;;;;19.10;81.50;;;;;;3392830;28;34153;-67
2021/08/05 02:22:01;;;;;;;;;;;19.30;80.40;;;;;;3373914;28;27842;-68
2021/08/05 02:24:30;;;;;;;;;;;19.40;80.40;;;;;;3391930;28;28036;-67
2021/08/05 02:26:58;;;;;;;;;;;19.40;80.50;;;;;;3387428;28;29050;-65
2021/08/05 02:29:25;;;;;;;;;;;19.50;80.30;;;;;;3381651;28;36667;-66
2021/08/05 02:31:52;;;;;;;;;;;19.90;80.10;;;;;;3394230;28;30128;-66
2021/08/05 02:34:20;;;;;;;;;;;19.90;79.60;;;;;;3414808;28;34117;-66
2021/08/05 02:36:47;;;;;;;;;;;20.00;79.00;;;;;;3377839;28;29105;-66
2021/08/05 02:39:14;;;;;;;;;;;20.30;79.30;;;;;;3366972;28;32549;-66
2021/08/05 02:41:42;;;;;;;;;;;20.20;79.30;;;;;;3435709;28;27637;-67
2021/08/05 02:44:09;;;;;;;;;;;19.90;78.60;;;;;;3437387;28;35129;-67
2021/08/05 02:46:36;;;;;;;;;;;19.80;78.50;;;;;;3390430;28;34081;-66
2021/08/05 02:49:04;;;;;;;;;;;19.70;78.90;;;;;;3398303;28;34073;-66
2021/08/05 02:51:48;;;;;;;;;;;19.90;77.60;;;;;;3419429;27;32859;-65
2021/08/05 02:54:16;;;;;;;;;;;19.90;78.60;;;;;;3387333;28;38123;-66
2021/08/05 02:56:43;;;;;;;;;;;20.40;77.90;;;;;;3434724;28;32377;-67
2021/08/05 02:59:10;;;;;;;;;;;20.20;77.80;;;;;;3400887;28;40111;-67
2021/08/05 03:01:38;;;;;;;;;;;20.10;77.40;;;;;;3347870;28;34159;-68
2021/08/05 03:04:04;;;;;;;;;;;19.90;78.20;;;;;;3362066;28;31062;-66
2021/08/05 03:06:32;;;;;;;;;;;20.30;78.00;;;;;;3321598;28;36140;-66
2021/08/05 03:08:58;;;;;;;;;;;20.80;77.10;;;;;;3302791;28;34924;-66
2021/08/05 03:11:25;;;;;;;;;;;21.00;75.80;;;;;;3276541;28;32114;-67
2021/08/05 03:13:51;;;;;;;;;;;21.00;76.00;;;;;;3278717;28;27051;-71
2021/08/05 03:16:18;;;;;;;;;;;20.70;75.70;;;;;;3252677;28;34082;-68
2021/08/05 03:18:45;;;;;;;;;;;20.90;74.90;;;;;;3241674;28;27731;-69
2021/08/05 03:21:12;;;;;;;;;;;20.60;73.40;;;;;;3220384;28;30154;-68
2021/08/05 03:23:39;;;;;;;;;;;20.50;74.50;;;;;;3302431;28;27069;-68
2021/08/05 03:26:06;;;;;;;;;;;20.80;73.30;;;;;;3411978;28;41109;-67
2021/08/05 03:28:32;;;;;;;;;;;20.80;74.20;;;;;;3419936;28;31116;-67
2021/08/05 03:30:59;;;;;;;;;;;20.60;74.10;;;;;;3439019;28;31097;-66
2021/08/05 03:33:26;;;;;;;;;;;20.40;75.20;;;;;;3429697;28;32140;-69
2021/08/05 03:35:53;;;;;;;;;;;20.40;75.40;;;;;;3421556;28;35081;-69
2021/08/05 03:38:19;;;;;;;;;;;20.20;74.20;;;;;;3423302;28;33120;-66
2021/08/05 03:40:46;;;;;;;;;;;20.60;74.00;;;;;;3425201;28;31071;-67
2021/08/05 03:43:13;;;;;;;;;;;21.10;73.20;;;;;;3422556;28;27880;-67
2021/08/05 03:45:40;;;;;;;;;;;21.40;73.10;;;;;;3426184;28;31057;-66
2021/08/05 03:48:06;;;;;;;;;;;21.20;73.10;;;;;;3427909;28;28573;-68
2021/08/05 03:50:33;;;;;;;;;;;21.00;73.90;;;;;;3433881;28;28474;-68
2021/08/05 03:53:00;;;;;;;;;;;20.80;73.30;;;;;;3433074;28;35108;-67
2021/08/05 03:55:26;;;;;;;;;;;20.90;73.30;;;;;;3428125;28;28506;-67
2021/08/05 03:57:53;;;;;;;;;;;21.10;73.00;;;;;;3424409;28;35123;-66
2021/08/05 04:00:20;;;;;;;;;;;20.80;73.50;;;;;;3442259;28;32083;-66
2021/08/05 04:02:47;;;;;;;;;;;20.70;73.60;;;;;;3443464;28;28065;-66
2021/08/05 04:05:13;;;;;;;;;;;21.00;73.60;;;;;;3436643;28;32314;-68
2021/08/05 04:07:40;;;;;;;;;;;21.40;71.80;;;;;;3431678;28;32086;-66
2021/08/05 04:10:07;;;;;;;;;;;21.30;72.30;;;;;;3441020;28;30055;-66
2021/08/05 04:12:34;;;;;;;;;;;21.40;72.70;;;;;;3440213;28;37158;-67
2021/08/05 04:15:01;;;;;;;;;;;21.60;71.40;;;;;;3434010;28;36119;-66
2021/08/05 04:17:27;;;;;;;;;;;21.60;71.80;;;;;;3466591;28;28622;-68
2021/08/05 04:19:54;;;;;;;;;;;21.60;71.40;;;;;;3451574;28;27862;-70
2021/08/05 04:22:21;;;;;;;;;;;21.10;72.00;;;;;;3327289;28;32068;-69
2021/08/05 04:24:48;;;;;;;;;;;20.90;72.20;;;;;;3332295;28;36069;-67
2021/08/05 04:27:14;;;;;;;;;;;21.00;72.80;;;;;;3256804;28;30074;-68
2021/08/05 04:29:41;;;;;;;;;;;21.10;72.70;;;;;;3254393;28;32088;-68
2021/08/05 04:32:08;;;;;;;;;;;21.50;72.60;;;;;;3309058;28;35085;-67
2021/08/05 04:34:34;;;;;;;;;;;21.60;71.90;;;;;;3318389;28;32107;-67
2021/08/05 04:37:01;;;;;;;;;;;21.60;70.60;;;;;;3285720;28;32378;-66
2021/08/05 04:39:28;;;;;;;;;;;21.30;70.80;;;;;;3217163;28;28699;-68
2021/08/05 04:41:54;;;;;;;;;;;21.40;71.60;;;;;;3235521;28;28334;-68
2021/08/05 04:44:21;;;;;;;;;;;21.60;71.10;;;;;;3218016;28;30072;-67
2021/08/05 04:46:48;;;;;;;;;;;21.70;71.80;;;;;;3227241;28;28839;-66
2021/08/05 04:49:14;;;;;;;;;;;22.60;70.30;;;;;;3274590;28;31079;-68
2021/08/05 04:51:41;;;;;;;;;;;23.00;69.00;;;;;;3208895;28;28622;-68
2021/08/05 04:54:08;;;;;;;;;;;22.60;68.50;;;;;;3270355;27;32106;-68
2021/08/05 04:56:35;;;;;;;;;;;22.10;69.30;;;;;;3274608;28;30127;-70
2021/08/05 04:59:01;;;;;;;;;;;22.10;70.10;;;;;;3298114;28;30102;-70
2021/08/05 05:01:28;;;;;;;;;;;22.10;70.20;;;;;;3283916;28;27923;-70
2021/08/05 05:03:55;;;;;;;;;;;21.80;70.30;;;;;;3299970;28;35155;-66
2021/08/05 05:06:21;;;;;;;;;;;21.40;70.30;;;;;;3299522;28;27867;-67
2021/08/05 05:08:48;;;;;;;;;;;21.30;70.80;;;;;;3205923;28;32302;-67
2021/08/05 05:11:15;;;;;;;;;;;21.50;71.00;;;;;;3228674;28;31085;-67
2021/08/05 05:13:41;;;;;;;;;;;21.30;71.60;;;;;;3271700;28;32470;-69
2021/08/05 05:16:08;;;;;;;;;;;21.20;71.80;;;;;;3250611;28;28074;-65
2021/08/05 05:18:35;;;;;;;;;;;21.40;72.00;;;;;;3349908;28;27954;-66
2021/08/05 05:21:01;;;;;;;;;;;21.40;71.70;;;;;;3368824;28;31061;-66
2021/08/05 05:23:28;;;;;;;;;;;21.30;71.00;;;;;;3354180;28;30102;-66
2021/08/05 05:25:55;;;;;;;;;;;21.40;71.30;;;;;;3247991;28;35107;-67
2021/08/05 05:28:22;;;;;;;;;;;21.70;71.00;;;;;;3175205;28;28510;-69
2021/08/05 05:30:49;;;;;;;;;;;21.40;71.60;;;;;;3174482;28;32163;-66
2021/08/05 05:33:16;;;;;;;;;;;21.20;71.10;;;;;;3270718;28;32866;-66
2021/08/05 05:35:42;;;;;;;;;;;21.50;71.10;;;;;;3342474;28;33564;-66
2021/08/05 05:38:09;;;;;;;;;;;21.40;71.30;;;;;;3302057;28;30165;-69
2021/08/05 05:40:37;;;;;;;;;;;21.30;71.40;;;;;;3266428;28;31086;-67
2021/08/05 05:43:04;;;;;;;;;;;20.70;71.90;;;;;;3179114;28;35063;-66
2021/08/05 05:45:31;;;;;;;;;;;20.60;72.00;;;;;;3188395;28;32147;-66
2021/08/05 05:48:00;;;;;;;;;;;20.70;72.00;;;;;;3253549;28;31073;-66
2021/08/05 05:50:28;;;;;;;;;;;21.10;71.60;;;;;;3306998;28;32131;-69
2021/08/05 05:52:56;;;;;;;;;;;20.60;72.50;;;;;;3292777;28;32903;-70
2021/08/05 05:55:24;;;;;;;;;;;20.50;73.40;;;;;;3314153;28;35145;-66
2021/08/05 05:57:50;;;;;;;;;;;20.50;73.30;;;;;;3270741;28;32712;-66
2021/08/05 06:00:17;;;;;;;;;;;20.30;72.80;;;;;;3276697;28;28422;-68
2021/08/05 06:02:44;;;;;;;;;;;20.20;73.30;;;;;;3268167;28;31459;-67
2021/08/05 06:05:11;;;;;;;;;;;20.10;73.20;;;;;;3276841;28;34149;-66
2021/08/05 06:07:48;;;;;;;;;;;20.10;73.40;;;;;;3316223;28;35065;-67
2021/08/05 06:10:16;;;;;;;;;;;20.20;73.80;;;;;;3296086;28;31488;-69
2021/08/05 06:12:42;;;;;;;;;;;20.20;73.60;;;;;;3262427;28;35139;-66
2021/08/05 06:15:09;;;;;;;;;;;20.30;73.60;;;;;;3272625;28;32085;-64
2021/08/05 06:17:36;;;;;;;;;;;20.30;73.10;;;;;;3378053;28;36117;-65
2021/08/05 06:20:04;;;;;;;;;;;19.60;73.90;;;;;;3290866;28;31976;-65
2021/08/05 06:22:30;;;;;;;;;;;19.10;75.30;;;;;;3140823;28;35100;-67
2021/08/05 06:24:57;;;;;;;;;;;18.60;76.20;;;;;;3095330;28;34122;-67
2021/08/05 06:27:24;;;;;;;;;;;18.30;77.50;;;;;;3098975;28;31072;-66
2021/08/05 06:29:51;;;;;;;;;;;18.00;77.70;;;;;;3114269;28;28590;-66
2021/08/05 06:32:17;;;;;;;;;;;17.90;78.50;;;;;;3161226;28;39081;-66
2021/08/05 06:34:44;;;;;;;;;;;17.90;78.80;;;;;;3163794;28;34048;-67
2021/08/05 06:37:11;;;;;;;;;;;17.80;78.90;;;;;;3178291;28;32369;-67
2021/08/05 06:39:38;;;;;;;;;;;17.70;79.40;;;;;;3330173;28;31964;-65
2021/08/05 06:42:04;;;;;;;;;;;17.60;79.70;;;;;;3323196;28;34077;-65
2021/08/05 06:44:35;;;;;;;;;;;17.50;80.30;;;;;;3182710;28;28410;-67
2021/08/05 06:47:03;;;;;;;;;;;17.40;80.80;;;;;;3245963;28;36065;-66
2021/08/05 06:49:29;;;;;;;;;;;17.30;80.90;;;;;;3242761;28;31068;-65
2021/08/05 06:51:56;;;;;;;;;;;17.20;81.70;;;;;;3358293;28;35144;-64
2021/08/05 06:54:23;;;;;;;;;;;17.10;81.80;;;;;;3230981;28;28534;-65
2021/08/05 06:56:50;;;;;;;;;;;16.90;82.40;;;;;;3241206;28;30076;-68
2021/08/05 06:59:17;;;;;;;;;;;16.80;82.40;;;;;;3286626;28;36121;-66
2021/08/05 07:01:43;;;;;;;;;;;16.80;82.80;;;;;;3357527;28;34071;-68
2021/08/05 07:04:11;;;;;;;;;;;16.80;83.20;;;;;;3181105;28;31086;-64
2021/08/05 07:06:38;;;;;;;;;;;16.70;83.50;;;;;;3188659;28;31144;-69
2021/08/05 07:09:11;;;;;;;;;;;16.60;83.80;;;;;;3346793;28;28526;-67
2021/08/05 07:11:38;;;;;;;;;;;16.60;84.20;;;;;;3339887;28;35113;-66
2021/08/05 07:14:13;;;;;;;;;;;16.50;84.60;;;;;;3330014;28;27077;-66
2021/08/05 07:17:23;;;;;;;;;;;16.40;85.10;;;;;;3230376;28;35212;-69
2021/08/05 07:20:05;;;;;;;;;;;16.30;85.90;;;;;;3157096;28;32304;-69
2021/08/05 07:22:31;;;;;;;;;;;16.10;86.40;;;;;;3159539;28;27711;-68
2021/08/05 07:24:58;;;;;;;;;;;16.00;86.90;;;;;;3141128;28;27766;-68
2021/08/05 07:27:25;;;;;;;;;;;16.00;86.80;;;;;;3180795;28;28654;-70
2021/08/05 07:29:51;;;;;;;;;;;15.90;87.00;;;;;;3253565;28;27951;-67
2021/08/05 07:32:18;;;;;;;;;;;15.80;87.80;;;;;;3256474;28;32367;-67
2021/08/05 07:34:45;;;;;;;;;;;15.80;87.30;;;;;;3230122;28;29139;-67
2021/08/05 07:37:11;;;;;;;;;;;15.70;87.60;;;;;;3248559;28;28438;-66
2021/08/05 07:39:38;;;;;;;;;;;15.70;87.60;;;;;;3261336;28;27061;-66
2021/08/05 07:42:05;;;;;;;;;;;15.60;87.80;;;;;;3235780;28;31070;-69
2021/08/05 07:44:32;;;;;;;;;;;15.60;87.80;;;;;;3338997;28;28591;-67
2021/08/05 07:46:58;;;;;;;;;;;15.60;87.90;;;;;;3325098;28;38191;-70
2021/08/05 07:49:26;;;;;;;;;;;15.50;88.10;;;;;;3328087;28;32061;-68
2021/08/05 07:51:53;;;;;;;;;;;15.50;88.80;;;;;;3319804;28;30058;-72
2021/08/05 07:54:20;;;;;;;;;;;15.40;88.30;;;;;;3328636;28;31055;-71
2021/08/05 07:56:46;;;;;;;;;;;15.40;88.40;;;;;;3313580;28;27056;-72
2021/08/05 07:59:13;;;;;;;;;;;15.40;88.60;;;;;;3327538;28;44054;-67
2021/08/05 08:01:40;;;;;;;;;;;15.30;88.80;;;;;;3313573;28;30099;-71
2021/08/05 08:04:06;;;;;;;;;;;15.30;89.00;;;;;;3311988;28;30068;-69
2021/08/05 08:06:33;;;;;;;;;;;15.20;89.40;;;;;;3338926;28;31102;-68
2021/08/05 08:09:00;;;;;;;;;;;15.10;89.40;;;;;;3334456;28;30085;-69
2021/08/05 08:11:27;;;;;;;;;;;15.10;89.50;;;;;;3353019;27;34133;-66
2021/08/05 08:13:54;;;;;;;;;;;15.00;89.90;;;;;;3310082;28;29071;-67
2021/08/05 08:16:21;;;;;;;;;;;15.00;90.40;;;;;;3295860;28;27747;-66
2021/08/05 08:18:48;;;;;;;;;;;15.00;90.10;;;;;;3299949;28;34069;-68
2021/08/05 08:21:15;;;;;;;;;;;14.90;90.30;;;;;;3304060;28;35144;-69
2021/08/05 08:23:42;;;;;;;;;;;14.90;90.20;;;;;;3300154;28;27967;-67
2021/08/05 08:26:10;;;;;;;;;;;14.90;90.40;;;;;;3283941;28;30169;-67
2021/08/05 08:28:36;;;;;;;;;;;14.80;90.60;;;;;;3276426;28;34081;-66
2021/08/05 08:31:04;;;;;;;;;;;14.80;90.50;;;;;;3281277;28;30113;-67
2021/08/05 08:33:30;;;;;;;;;;;14.80;90.70;;;;;;3296839;27;31828;-68
2021/08/05 08:35:58;;;;;;;;;;;14.70;90.80;;;;;;3308944;28;30103;-66
2021/08/05 08:44:31;;;;;;;;;;;14.60;91.00;;;;;;3266409;28;29088;-66
2021/08/05 08:46:58;;;;;;;;;;;14.60;91.10;;;;;;3252076;28;33115;-66
2021/08/05 08:49:25;;;;;;;;;;;14.50;91.20;;;;;;3247945;28;38148;-67
2021/08/05 08:51:54;;;;;;;;;;;14.50;91.30;;;;;;3260448;28;33075;-66
2021/08/05 08:54:21;;;;;;;;;;;14.50;91.50;;;;;;3297722;28;43092;-66
2021/08/05 08:56:48;;;;;;;;;;;14.50;91.50;;;;;;3295016;28;33070;-68
2021/08/05 08:59:17;;;;;;;;;;;14.50;91.80;;;;;;3295460;28;34936;-67
2021/08/05 09:01:44;;;;;;;;;;;14.50;91.60;;;;;;3305269;28;35074;-68
2021/08/05 09:04:11;;;;;;;;;;;14.40;91.80;;;;;;3349755;28;30928;-67
2021/08/05 09:06:37;;;;;;;;;;;14.40;91.90;;;;;;3341211;28;33055;-67
2021/08/05 09:09:07;;;;;;;;;;;14.40;92.10;;;;;;3346177;28;28079;-68
2021/08/05 09:11:34;;;;;;;;;;;14.30;92.10;;;;;;3342284;28;30909;-70
2021/08/05 09:14:01;;;;;;;;;;;14.30;92.10;;;;;;3344046;28;30065;-67
2021/08/05 09:16:29;;;;;;;;;;;14.30;92.30;;;;;;3362688;28;34951;-71
2021/08/05 09:19:11;;;;;;;;;;;14.30;92.40;;;;;;3356173;28;33086;-67
2021/08/05 09:21:38;;;;;;;;;;;14.20;92.40;;;;;;3344514;28;35107;-67
2021/08/05 09:24:09;;;;;;;;;;;14.20;92.50;;;;;;3349074;28;30079;-67
2021/08/05 09:26:47;;;;;;;;;;;14.20;92.70;;;;;;3359483;28;39114;-67
2021/08/05 09:29:15;;;;;;;;;;;14.10;92.70;;;;;;3360449;28;34064;-67
2021/08/05 09:31:51;;;;;;;;;;;14.10;92.80;;;;;;3368429;28;35133;-67
2021/08/05 09:34:20;;;;;;;;;;;14.10;93.00;;;;;;3372721;28;38079;-68
2021/08/05 09:36:47;;;;;;;;;;;14.00;93.00;;;;;;3371657;28;34111;-67
2021/08/05 09:39:18;;;;;;;;;;;14.00;93.10;;;;;;3372368;28;35952;-68
2021/08/05 09:41:59;;;;;;;;;;;14.00;93.20;;;;;;3373627;28;40351;-68
2021/08/05 09:44:44;;;;;;;;;;;13.90;93.30;;;;;;3367826;28;29047;-67
2021/08/05 09:47:15;;;;;;;;;;;13.90;93.40;;;;;;3384117;27;33097;-67
2021/08/05 09:49:49;;;;;;;;;;;13.90;93.50;;;;;;3381883;28;29084;-67
2021/08/05 09:52:24;;;;;;;;;;;13.80;93.70;;;;;;3396017;28;29069;-66
2021/08/05 09:55:20;;;;;;;;;;;13.80;93.70;;;;;;3389117;27;43894;-67
2021/08/05 09:57:55;;;;;;;;;;;13.80;93.90;;;;;;3382497;28;37080;-66
2021/08/05 10:00:22;;;;;;;;;;;13.70;94.00;;;;;;3393370;28;39062;-67
2021/08/05 10:02:52;;;;;;;;;;;13.70;94.10;;;;;;3391871;28;37064;-67
2021/08/05 10:05:23;;;;;;;;;;;13.70;94.30;;;;;;3344493;28;35573;-66
2021/08/05 10:07:51;;;;;;;;;;;13.70;94.30;;;;;;3336239;28;39115;-68
2021/08/05 10:10:19;;;;;;;;;;;13.60;94.50;;;;;;3352019;28;31013;-68
2021/08/05 10:12:50;;;;;;;;;;;13.60;94.70;;;;;;3352710;28;30065;-67
2021/08/05 10:15:17;;;;;;;;;;;13.50;94.70;;;;;;3345797;28;39152;-68
2021/08/05 10:17:44;;;;;;;;;;;13.50;94.80;;;;;;3349243;28;39631;-67
2021/08/05 10:20:11;;;;;;;;;;;13.40;94.90;;;;;;3353015;28;51068;-68
2021/08/05 10:22:39;;;;;;;;;;;13.40;95.10;;;;;;3356838;28;30053;-67
2021/08/05 10:25:11;;;;;;;;;;;13.40;95.10;;;;;;3356460;28;38099;-69
2021/08/05 10:27:38;;;;;;;;;;;13.40;95.50;;;;;;3350567;28;35173;-67
2021/08/05 10:30:06;;;;;;;;;;;13.30;95.30;;;;;;3341085;28;33065;-69
2021/08/05 10:32:33;;;;;;;;;;;13.30;95.50;;;;;;3340500;28;29150;-68
2021/08/05 10:35:00;;;;;;;;;;;13.20;95.60;;;;;;3350376;28;26901;-70
2021/08/05 10:37:27;;;;;;;;;;;13.20;95.80;;;;;;3356152;28;47083;-69
2021/08/05 10:39:54;;;;;;;;;;;13.20;95.90;;;;;;3374681;28;32005;-66
2021/08/05 10:42:21;;;;;;;;;;;13.20;96.00;;;;;;3365779;28;30238;-67
2021/08/05 10:44:49;;;;;;;;;;;13.10;96.10;;;;;;3363065;28;30083;-66
2021/08/05 10:50:04;;;;;;;;;;;13.10;96.40;;;;;;3358846;27;26969;-66
2021/08/05 10:52:38;;;;;;;;;;;13.00;96.40;;;;;;3342581;28;27907;-66
2021/08/05 10:55:05;;;;;;;;;;;13.00;96.60;;;;;;3345477;28;27639;-67
2021/08/05 10:57:32;;;;;;;;;;;13.00;96.80;;;;;;3355103;28;31818;-65
2021/08/05 11:00:00;;;;;;;;;;;12.90;96.80;;;;;;3351450;28;30101;-66
2021/08/05 11:02:45;;;;;;;;;;;13.00;96.80;;;;;;3350467;28;29101;-67
2021/08/05 11:05:13;;;;;;;;;;;12.90;96.80;;;;;;3343703;28;31336;-66
2021/08/05 11:07:39;;;;;;;;;;;12.90;96.80;;;;;;3341230;28;34069;-67
2021/08/05 11:10:12;;;;;;;;;;;12.90;96.90;;;;;;3373490;28;31043;-66
2021/08/05 11:12:49;;;;;;;;;;;12.90;97.00;;;;;;3351542;28;39104;-66
2021/08/05 11:15:22;;;;;;;;;;;12.80;97.10;;;;;;3355652;28;35087;-66
2021/08/05 11:18:11;;;;;;;;;;;12.80;97.20;;;;;;3356979;28;29137;-67
2021/08/05 11:20:38;;;;;;;;;;;12.80;97.30;;;;;;3359698;28;29102;-67
2021/08/05 11:23:06;;;;;;;;;;;12.80;97.40;;;;;;3357208;28;33065;-67
2021/08/05 11:25:51;;;;;;;;;;;12.80;97.40;;;;;;3341333;28;33146;-67
2021/08/05 11:28:21;;;;;;;;;;;12.80;97.40;;;;;;3344638;28;29067;-67
2021/08/05 11:30:51;;;;;;;;;;;12.80;97.60;;;;;;3364159;28;30059;-67
2021/08/05 11:33:35;;;;;;;;;;;12.70;97.80;;;;;;3367112;28;35070;-67
2021/08/05 11:38:59;;;;;;;;;;;12.70;97.70;;;;;;3374334;28;34099;-68
2021/08/05 11:41:44;;;;;;;;;;;12.70;97.70;;;;;;3373104;28;30060;-69
2021/08/05 11:44:23;;;;;;;;;;;12.60;98.00;;;;;;3372731;28;33149;-67
2021/08/05 11:47:10;;;;;;;;;;;12.60;98.10;;;;;;3356257;28;38099;-67
2021/08/05 11:49:37;;;;;;;;;;;12.60;98.20;;;;;;3338188;28;30079;-68
2021/08/05 11:52:08;;;;;;;;;;;12.60;98.40;;;;;;3360819;28;27110;-68
2021/08/05 11:54:39;;;;;;;;;;;12.50;98.20;;;;;;3407941;28;30144;-68
2021/08/05 11:57:07;;;;;;;;;;;12.50;98.70;;;;;;3402129;28;28155;-67
2021/08/05 11:59:41;;;;;;;;;;;12.50;98.50;;;;;;3399211;28;35075;-67
2021/08/05 12:02:30;;;;;;;;;;;12.50;98.90;;;;;;3401249;28;35100;-66
2021/08/05 12:04:57;;;;;;;;;;;12.40;99.10;;;;;;3404163;28;27755;-66
2021/08/05 12:07:23;;;;;;;;;;;12.40;98.90;;;;;;3403929;28;30160;-67
2021/08/05 12:09:51;;;;;;;;;;;12.40;99.00;;;;;;3396963;28;30125;-68
2021/08/05 12:12:18;;;;;;;;;;;12.30;99.40;;;;;;3390289;28;34103;-67
2021/08/05 12:14:50;;;;;;;;;;;12.30;99.10;;;;;;3397334;28;30104;-67
2021/08/05 12:17:28;;;;;;;;;;;12.30;99.60;;;;;;3389296;28;31069;-66
2021/08/05 12:19:55;;;;;;;;;;;12.20;99.60;;;;;;3397687;28;28697;-67
2021/08/05 12:22:29;;;;;;;;;;;12.20;99.90;;;;;;3406683;28;27084;-67
2021/08/05 12:24:56;;;;;;;;;;;12.10;99.90;;;;;;3405028;28;27873;-67
2021/08/05 12:27:23;;;;;;;;;;;12.00;99.90;;;;;;3404063;28;36088;-66
2021/08/05 12:30:00;;;;;;;;;;;11.90;99.90;;;;;;3415565;28;31134;-66
2021/08/05 12:32:27;;;;;;;;;;;11.80;99.90;;;;;;3413219;28;35158;-67
2021/08/05 12:34:53;;;;;;;;;;;11.80;99.90;;;;;;3410597;28;27072;-66
2021/08/05 12:37:21;;;;;;;;;;;11.80;99.90;;;;;;3406907;28;30082;-67
2021/08/05 12:39:48;;;;;;;;;;;11.80;99.90;;;;;;3408383;28;27692;-66
2021/08/05 12:42:16;;;;;;;;;;;11.70;99.90;;;;;;3410125;28;32993;-66
2021/08/05 12:44:43;;;;;;;;;;;11.60;99.90;;;;;;3407632;28;29063;-66
2021/08/05 12:47:10;;;;;;;;;;;11.60;99.90;;;;;;3401266;28;27999;-66
2021/08/05 12:49:38;;;;;;;;;;;11.60;99.90;;;;;;3398911;28;35082;-66
2021/08/05 12:52:06;;;;;;;;;;;11.50;99.90;;;;;;3386715;28;27835;-66
2021/08/05 12:54:33;;;;;;;;;;;11.50;99.90;;;;;;3392244;28;29077;-66
2021/08/05 12:57:13;;;;;;;;;;;11.50;99.90;;;;;;3388000;28;27117;-67
2021/08/05 12:59:41;;;;;;;;;;;11.40;99.90;;;;;;3400351;28;32118;-67
2021/08/05 13:02:09;;;;;;;;;;;11.50;99.90;;;;;;3402905;28;31921;-67
2021/08/05 13:04:36;;;;;;;;;;;11.40;99.90;;;;;;3406441;28;28481;-66
2021/08/05 13:07:03;;;;;;;;;;;11.50;99.90;;;;;;3402428;28;36079;-66
2021/08/05 13:09:31;;;;;;;;;;;11.50;99.90;;;;;;3401849;28;32066;-66
2021/08/05 13:11:59;;;;;;;;;;;11.50;99.90;;;;;;3401226;28;31945;-66
2021/08/05 13:14:26;;;;;;;;;;;11.50;99.90;;;;;;3398962;28;27126;-65
2021/08/05 13:17:07;;;;;;;;;;;11.40;99.90;;;;;;3411792;28;32797;-66
2021/08/05 13:19:53;;;;;;;;;;;11.40;99.90;;;;;;3416606;28;30065;-66
2021/08/05 13:22:40;;;;;;;;;;;11.30;99.90;;;;;;3405553;28;30077;-66
2021/08/05 13:25:11;;;;;;;;;;;11.30;99.90;;;;;;3411883;28;31153;-67
2021/08/05 13:27:38;;;;;;;;;;;11.30;99.90;;;;;;3405328;28;32070;-66
2021/08/05 13:30:19;;;;;;;;;;;11.30;99.90;;;;;;3419996;28;27097;-66
2021/08/05 13:32:47;;;;;;;;;;;11.20;99.90;;;;;;3409342;28;34062;-66
2021/08/05 13:35:14;;;;;;;;;;;11.20;99.90;;;;;;3398439;28;32736;-66
2021/08/05 13:37:42;;;;;;;;;;;11.20;99.90;;;;;;3403491;28;31099;-67
2021/08/05 13:40:27;;;;;;;;;;;11.10;99.90;;;;;;3407652;28;30063;-66
2021/08/05 13:42:53;;;;;;;;;;;11.10;99.90;;;;;;3416347;28;29114;-66
2021/08/05 13:45:20;;;;;;;;;;;11.10;99.90;;;;;;3407923;28;31069;-67
2021/08/05 13:47:48;;;;;;;;;;;11.10;99.90;;;;;;3405555;28;31060;-66
2021/08/05 13:50:18;;;;;;;;;;;11.10;99.90;;;;;;3397085;28;28014;-66
2021/08/05 13:52:45;;;;;;;;;;;11.00;99.90;;;;;;3412350;28;32056;-66
2021/08/05 13:55:12;;;;;;;;;;;11.00;99.90;;;;;;3412737;28;31931;-66
2021/08/05 13:57:39;;;;;;;;;;;11.00;99.90;;;;;;3413202;28;32497;-66
2021/08/05 14:00:06;;;;;;;;;;;10.90;99.90;;;;;;3421817;28;30150;-66
2021/08/05 14:02:34;;;;;;;;;;;10.90;99.90;;;;;;3427707;28;35086;-66
2021/08/05 14:05:02;;;;;;;;;;;11.00;99.90;;;;;;3426922;28;34076;-67
2021/08/05 14:07:28;;;;;;;;;;;11.00;99.90;;;;;;3420930;28;36352;-65
2021/08/05 14:09:56;;;;;;;;;;;11.00;99.90;;;;;;3417733;28;35096;-65
2021/08/05 14:12:23;;;;;;;;;;;11.10;99.90;;;;;;3419239;28;31921;-65
2021/08/05 14:14:51;;;;;;;;;;;11.10;99.90;;;;;;3420304;28;31960;-66
2021/08/05 14:17:18;;;;;;;;;;;11.10;99.90;;;;;;3414235;28;27495;-66
2021/08/05 14:19:45;;;;;;;;;;;11.10;99.90;;;;;;3411435;28;27114;-66
2021/08/05 14:22:12;;;;;;;;;;;11.10;99.90;;;;;;3417373;28;35162;-66
2021/08/05 14:24:39;;;;;;;;;;;11.10;99.90;;;;;;3415250;28;31058;-67
2021/08/05 14:27:06;;;;;;;;;;;11.20;99.90;;;;;;3405706;28;31064;-66
2021/08/05 14:29:33;;;;;;;;;;;11.20;99.90;;;;;;3417206;28;31130;-67
2021/08/05 14:32:02;;;;;;;;;;;11.20;99.90;;;;;;3417670;28;27058;-66
2021/08/05 14:34:28;;;;;;;;;;;11.20;99.90;;;;;;3417427;28;34059;-67
2021/08/05 14:36:55;;;;;;;;;;;11.20;99.90;;;;;;3420384;28;27101;-66